Paul R Tregurtha — WYR4481 — position and weather

sailwx.info

Track history (hours):
 
Tides and Currents Weather Stations Pressure Air Temp Water Temp Dewpoint Dewpoint Depression Visibility Wind Speed Wind Dir Waves Ship Positions

Paul R Tregurtha

Owner: THE INTERLAKE STEAMSHIP COMPANY, Middleburg Heights, OH. More information available from US FCC via Universal Licensing System and Coast Guard Vessel Documentation Center.

Last reported at 2016-Jun-29 01:00 UTC. Time now 2016-Jun-29 01:53 UTC.
Position N 47°24' W 089°54'.

Length 309 m; draft 7.3 m.

Type: Cargo ship. MMSI: 366904940.

Wind from 160 at 7 knots

Barometer 1020.3 mb
Air temperature 10.3 ° C
Water temperature 7.0 ° C

Date/timePositionNaut miles runAvg speedWind from/ knotsBaromVisibWave heightAir tempDewpointWater temp
2016-Jun-29 01:00N 47°24' W 089°54'1413.6 160 / 71020.3 10.3 7.0
2016-Jun-29 00:00N 47°18' W 090°12'1212.2 160 / 81020.7 12.1 9.3
2016-Jun-28 23:00N 47°18' W 090°30'1413.6 140 / 51021.7 14.0 10.8
2016-Jun-28 22:00N 47°12' W 090°48'1010.1 220 / 51022.4 14.4 13.0
2016-Jun-28 21:00N 47°06' W 091°00'1413.7 240 / 91023.0 14.0 10.0
2016-Jun-28 20:00N 47°00' W 091°18'713.5 230 / 101023.7 14.6 8.7
2016-Jun-28 19:27N 46°58' W 091°29'714.9
2016-Jun-28 19:00N 46°54' W 091°36'510.7 220 / 101024.4 14.5 10.6
2016-Jun-28 18:33N 46°53' W 091°43'611.3
2016-Jun-28 18:00N 46°48' W 091°48'716.3 180 / 81024.4 16.4 11.8
2016-Jun-28 17:33N 46°48' W 091°58'5 9.2
2016-Jun-28 17:00N 46°48' W 092°06'3 7.0 120 / 61025.1 17.2 17.7
2016-Jun-28 16:33N 46°45' W 092°06'3 5.2
2016-Jun-28 16:00N 46°42' W 092°06'3 6.1 060 / 41025.4 18.9 16.4
2016-Jun-28 15:33N 46°45' W 092°07'3 4.7
2016-Jun-28 15:00N 46°42' W 092°06'3 6.1 310 / 21025.4 20.6 18.6
2016-Jun-28 14:33N 46°45' W 092°07'3 4.7
2016-Jun-28 14:00N 46°42' W 092°06'3 6.1 360 / 51025.4 18.0 19.2
2016-Jun-28 13:33N 46°45' W 092°07'3 4.7
2016-Jun-28 13:00N 46°42' W 092°06'3 6.1 260 / 11025.4 16.5 20.3
2016-Jun-28 12:33N 46°45' W 092°07'3 4.7
2016-Jun-28 12:00N 46°42' W 092°06'3 5.9 140 / 31025.1 16.1 20.9
2016-Jun-28 11:33N 46°45' W 092°07'3 4.8
2016-Jun-28 11:00N 46°42' W 092°06'3 6.0 060 / 51024.7 14.9 21.0
2016-Jun-28 10:33N 46°45' W 092°07'3 4.7
2016-Jun-28 10:00N 46°42' W 092°06'3 6.0 320 / 61024.4 14.8 20.7
2016-Jun-28 09:33N 46°45' W 092°07'3 4.7
2016-Jun-28 09:00N 46°42' W 092°06'3 6.0 330 / 81024.4 14.1 20.3
2016-Jun-28 08:33N 46°45' W 092°07'3 4.7
2016-Jun-28 08:00N 46°42' W 092°06'3 6.0 360 / 21024.4 15.7 19.6
2016-Jun-28 07:33N 46°45' W 092°07'3 4.7
2016-Jun-28 07:00N 46°42' W 092°06'3 6.0 020 / 41024.0 15.8 20.2
2016-Jun-28 06:33N 46°45' W 092°07'3 4.7
2016-Jun-28 06:00N 46°42' W 092°06'7 7.3 040 / 41024.4 16.4 18.1
2016-Jun-28 05:00N 46°48' W 092°00'716.1 040 / 61024.4 15.1 12.0
2016-Jun-28 04:33N 46°51' W 091°51'711.9
2016-Jun-28 04:00N 46°54' W 091°42'613.7 050 / 21024.0 13.8 10.9
2016-Jun-28 03:33N 46°55' W 091°33'814.3
2016-Jun-28 03:00N 47°00' W 091°24'1212.3 330 / 11023.4 12.8 9.3
2016-Jun-28 02:00N 47°00' W 091°06'1413.7 330 / 41022.7 12.4 11.2
2016-Jun-28 01:00N 47°06' W 090°48'1413.6 290 / 31022.410.8 13.1 12.4
2016-Jun-28 00:00N 47°12' W 090°30'1212.2 350 / 71021.7 13.1 10.1
2016-Jun-27 23:00N 47°12' W 090°12'1413.6 310 / 71021.0 13.5 8.7
2016-Jun-27 22:00N 47°18' W 089°54'1212.2 280 / 71020.7 10.6 5.2
2016-Jun-27 21:00N 47°18' W 089°36'1212.2 290 / 51020.3 9.7 5.8
2016-Jun-27 20:00N 47°18' W 089°18'1413.6 290 / 61020.0 11.0 6.3
2016-Jun-27 19:00N 47°24' W 089°00'1212.2 250 / 91019.3 9.2 7.2
2016-Jun-27 18:00N 47°24' W 088°42'1413.6 250 / 61019.0 7.9 4.8
2016-Jun-27 17:00N 47°30' W 088°24'1212.2 290 / 91017.6 8.8 4.8
2016-Jun-27 16:00N 47°30' W 088°06'1212.2 330 / 101016.3 7.9 5.3
2016-Jun-27 15:00N 47°30' W 087°48'1413.6 280 / 121014.9 5.4 1.0 9.3 6.5
2016-Jun-27 14:00N 47°24' W 087°30'1212.2 320 / 121013.5 8.6 8.3
2016-Jun-27 13:00N 47°24' W 087°12'1413.6 300 / 101012.2 5.4 1.0 8.5 5.7
2016-Jun-27 12:00N 47°18' W 086°54'7312.2 210 / 81011.5 10.2 5.4
2016-Jun-27 06:00N 46°54' W 085°12'1413.7 280 / 101009.1 15.3 12.1
2016-Jun-27 05:00N 46°48' W 084°54'1312.7 210 / 151008.5 18.1 13.8
2016-Jun-27 04:00N 46°36' W 084°48'1611.2 210 / 121009.1 17.4 15.0
2016-Jun-27 02:33N 46°29' W 084°27'2 4.3
2016-Jun-27 02:00N 46°30' W 084°24'4 4.1 230 / 51009.8 21.8 15.5
2016-Jun-27 01:00N 46°30' W 084°18'6 6.0 200 / 61009.3 23.8 15.5
2016-Jun-27 00:00N 46°24' W 084°18'7 7.3 200 / 71009.6 24.0 15.5
2016-Jun-26 23:00N 46°18' W 084°12'7 7.3 230 / 121009.9 24.4 16.4
2016-Jun-26 22:00N 46°12' W 084°06'7 7.3 260 / 141011.0 21.4 17.3
2016-Jun-26 21:00N 46°06' W 084°00'1312.7 230 / 171011.0 23.2 17.1
2016-Jun-26 20:00N 45°54' W 083°54'1514.6 270 / 171011.6 17.9 15.2
2016-Jun-26 19:00N 45°42' W 083°42'2512.3 260 / 91012.0 17.5 15.7
2016-Jun-26 17:00N 45°24' W 083°18'1312.7 350 / 71012.0 18.5 15.9
2016-Jun-26 16:00N 45°12' W 083°12'1514.7 220 / 61012.7 18.2 15.2
2016-Jun-26 15:00N 45°00' W 083°00'1312.7 190 / 151013.3 5.4 1.017.6 14.9
2016-Jun-26 14:00N 44°48' W 082°54'1312.7 200 / 161014.7 17.3 14.9
2016-Jun-26 13:00N 44°36' W 082°48'4013.3 180 / 141015.0 16.9 15.0
2016-Jun-26 10:00N 44°00' W 082°24'1212.0 170 / 141016.4 17.9 16.4
2016-Jun-26 09:00N 43°48' W 082°24'1818.0 180 / 141016.7 18.7 18.0
2016-Jun-26 08:00N 43°30' W 082°24'1212.0 180 / 131018.1 18.7 18.1
2016-Jun-26 07:00N 43°18' W 082°24'1212.0 180 / 101018.1 18.6 18.2
2016-Jun-26 06:00N 43°06' W 082°24'6 6.0 200 / 81019.1 19.7 18.9
2016-Jun-26 05:00N 43°00' W 082°24'1312.8 200 / 41019.4 20.3 18.8
2016-Jun-26 04:00N 42°48' W 082°30'6 6.0 180 / 61019.4 20.5 19.0
2016-Jun-26 03:00N 42°42' W 082°30'1312.8 200 / 41019.8 21.3 18.9
2016-Jun-26 02:00N 42°30' W 082°36'2110.7 170 / 91019.2 22.0 19.1
2016-Jun-26 00:00N 42°18' W 083°00'7 7.5 220 / 81019.2 26.5 22.4
2016-Jun-25 23:00N 42°12' W 083°06'6 6.0 180 / 101019.2 27.2 21.8
2016-Jun-25 22:00N 42°06' W 083°06'1212.0 160 / 91019.8 25.3 22.3
2016-Jun-25 21:00N 41°54' W 083°06'9 8.9 140 / 71020.5 23.9 23.8
2016-Jun-25 20:00N 41°54' W 083°18'0 0.0 120 / 61021.2 24.5 24.2
2016-Jun-25 19:00N 41°54' W 083°18'0 0.0 210 / 21021.2 25.8 26.0
2016-Jun-25 18:00N 41°54' W 083°18'0 0.0 220 / 11021.5 26.6 25.8
2016-Jun-25 17:00N 41°54' W 083°18'0 0.0 180 / 11021.5 25.4 25.8
2016-Jun-25 16:00N 41°54' W 083°18'0 0.0 240 / 41022.2 27.8 25.8
2016-Jun-25 15:00N 41°54' W 083°18'0 0.0 170 / 41022.2 25.4 25.8
2016-Jun-25 14:00N 41°54' W 083°18'0 0.0 170 / 41022.2 24.6 25.5
2016-Jun-25 13:00N 41°54' W 083°18'0 0.0 090 / 11021.8 23.4 25.6
2016-Jun-25 12:00N 41°54' W 083°18'0 0.0 060 / 21021.5 21.2 25.5
2016-Jun-25 11:00N 41°54' W 083°18'0 0.0 110 / 11020.8 20.6 25.7
2016-Jun-25 10:00N 41°54' W 083°18'0 0.0 020 / 11020.1 19.2 25.9
2016-Jun-25 09:00N 41°54' W 083°18'0 0.0 360 / 61019.8 18.8 25.7
2016-Jun-25 08:00N 41°54' W 083°18'4 4.5 300 / 41020.1 19.4 24.0
2016-Jun-25 07:00N 41°54' W 083°12'13 6.4 030 / 31020.1 21.5 22.8
2016-Jun-25 05:00N 42°06' W 083°06'1212.0 340 / 21020.6 19.1 21.4
2016-Jun-25 04:00N 42°18' W 083°06'1110.7 090 / 11020.3 20.6 21.8
2016-Jun-25 03:00N 42°24' W 082°54'1110.7 220 / 21019.6 22.2 21.3
2016-Jun-25 02:00N 42°30' W 082°42'1110.7 090 / 61019.2 22.2 18.6
2016-Jun-25 01:00N 42°36' W 082°30'1212.0 040 / 41019.1 22.4 18.4
2016-Jun-25 00:00N 42°48' W 082°30'0 0.0 010 / 61019.1 23.8 19.5
2016-Jun-24 23:00N 42°48' W 082°30'0 0.0 060 / 31019.1 24.9 20.4
2016-Jun-24 22:00N 42°48' W 082°30'0 0.0 060 / 71019.1 24.9 20.6
2016-Jun-24 21:00N 42°48' W 082°30'0 0.0 060 / 21019.1 26.0 20.3
2016-Jun-24 20:00N 42°48' W 082°30'0 0.0 260 / 21019.4 25.7 20.1
2016-Jun-24 19:00N 42°48' W 082°30'0 0.0 070 / 21019.8 26.3 20.1
2016-Jun-24 18:00N 42°48' W 082°30'0 0.0 210 / 21019.8 24.3 20.0
2016-Jun-24 17:00N 42°48' W 082°30'0 0.0 300 / 11019.8 24.7 20.4
2016-Jun-24 16:00N 42°48' W 082°30'0 0.0 070 / 41019.8 23.0 20.4
2016-Jun-24 15:00N 42°48' W 082°30'0 0.0 100 / 51019.4 22.2 19.7
2016-Jun-24 14:00N 42°48' W 082°30'0 0.0 080 / 41020.1 20.6 19.5
2016-Jun-24 13:00N 42°48' W 082°30'6 6.0 020 / 31019.8 18.8 18.0
2016-Jun-24 12:00N 42°54' W 082°30'1312.8 040 / 71019.1 18.1 17.9
2016-Jun-24 11:00N 43°06' W 082°24'1212.0 020 / 91018.4 16.9 17.5
2016-Jun-24 10:00N 43°18' W 082°24'1212.0 360 / 91018.4 15.6 16.6
2016-Jun-24 09:00N 43°30' W 082°24'1312.8 330 / 81017.4 14.9 16.5
2016-Jun-24 08:00N 43°42' W 082°30'2412.2 350 / 31017.4 14.8 15.5
2016-Jun-24 06:00N 44°06' W 082°36'1312.7 050 / 61016.7 15.2 14.4
2016-Jun-24 05:00N 44°18' W 082°42'3310.9 040 / 41016.7 16.7 13.9
2016-Jun-24 02:00N 44°48' W 083°00'1212.0 220 / 51015.7 15.8 14.0
2016-Jun-24 01:00N 45°00' W 083°00'1514.7 240 / 41015.410.8 16.7 14.2
2016-Jun-24 00:00N 45°12' W 083°12'3712.2 230 / 51015.0 16.7 13.4
2016-Jun-23 21:00N 45°42' W 083°42'20 9.9 240 / 81015.0 16.1 13.8
2016-Jun-23 19:00N 46°00' W 083°54'7 7.3 190 / 101014.7 20.7 16.2
2016-Jun-23 18:00N 46°06' W 084°00'1010.3 330 / 71014.7 21.6 15.6
2016-Jun-23 17:00N 46°12' W 084°12'6 6.0 330 / 61015.4 21.0 14.7
2016-Jun-23 16:00N 46°18' W 084°12'7 7.3 020 / 51015.4 19.5 14.2
2016-Jun-23 15:00N 46°24' W 084°18'6 6.0 300 / 41015.0 17.7 14.2
2016-Jun-23 14:00N 46°30' W 084°18'4 4.1 180 / 11015.4 18.5 13.8
2016-Jun-23 13:00N 46°30' W 084°24'0 0.0 300 / 21015.2 15.6 13.8
2016-Jun-23 12:00N 46°30' W 084°24'0 0.0 250 / 21014.6 13.7 14.0
2016-Jun-23 11:00N 46°30' W 084°24'0 0.0 220 / 21014.6 13.7 13.9
2016-Jun-23 10:00N 46°30' W 084°24'0 0.0 310 / 21013.9 10.7 14.0
2016-Jun-23 09:00N 46°30' W 084°24'4 4.1 050 / 51013.5 11.3 14.1
2016-Jun-23 08:00N 46°30' W 084°30'4 4.1 200 / 31013.9 10.3 13.6
2016-Jun-23 07:00N 46°30' W 084°36'1010.2 1013.2 12.5 13.4
2016-Jun-23 06:00N 46°36' W 084°48'1312.7 340 / 31013.9 11.7 12.3
2016-Jun-23 05:00N 46°48' W 084°54'1010.2 350 / 61013.5 11.0 11.6
2016-Jun-23 04:00N 46°54' W 085°06'8 8.2 340 / 41013.5 9.8 10.2
2016-Jun-23 03:00N 46°54' W 085°18'1010.2 250 / 21013.9 10.0 7.8
2016-Jun-23 02:00N 47°00' W 085°30'70 9.9 190 / 21013.510.8 10.0 7.2
2016-Jun-22 19:00N 47°24' W 087°06'1010.1 110 / 61014.9 8.9 5.1
2016-Jun-22 18:00N 47°30' W 087°18'1010.1 110 / 61015.6 9.2 5.2
2016-Jun-22 17:00N 47°36' W 087°30'1212.1 110 / 51015.9 7.3 7.4
2016-Jun-22 16:00N 47°36' W 087°48'8 8.1 100 / 61014.9 9.0 5.5
2016-Jun-22 15:00N 47°36' W 088°00'1212.1 020 / 41014.9 10.3 4.9
2016-Jun-22 14:00N 47°36' W 088°18'8 8.1 340 / 31015.6 7.6 4.4
2016-Jun-22 13:00N 47°36' W 088°30'1413.5 320 / 11015.910.8 7.9 4.4
2016-Jun-22 12:00N 47°30' W 088°48'8 8.1 140 / 41014.9 9.0 4.6
2016-Jun-22 11:00N 47°30' W 089°00'8 8.1 040 / 61013.9 8.4 6.4
2016-Jun-22 10:00N 47°30' W 089°12'1413.6 130 / 101012.9 9.3 5.3
2016-Jun-22 09:00N 47°24' W 089°30'8 8.1 110 / 111012.5 8.9 5.0
2016-Jun-22 08:00N 47°24' W 089°42'8 8.1 110 / 101013.2 7.4 4.7
2016-Jun-22 07:00N 47°24' W 089°54'1413.6 080 / 121012.9 8.1 5.5
2016-Jun-22 06:00N 47°18' W 090°12'8 8.1 050 / 101013.2 12.0 7.1
2016-Jun-22 05:00N 47°18' W 090°24'1212.2 350 / 101013.2 16.9 8.2
2016-Jun-22 04:00N 47°18' W 090°42'1010.1 340 / 111012.5 18.5 9.2
2016-Jun-22 03:00N 47°12' W 090°54'1010.1 340 / 101012.510.8 0.518.3 11.7
2016-Jun-22 02:00N 47°06' W 091°06'1010.1 320 / 131011.9 20.1 8.5
2016-Jun-22 01:00N 47°00' W 091°18'8 8.2 240 / 31011.5 15.8 6.1
2016-Jun-22 00:00N 47°00' W 091°30'817.6 290 / 71011.9 17.4 7.1
2016-Jun-21 23:34N 46°55' W 091°38'3 4.9
2016-Jun-21 23:00N 46°54' W 091°42'819.3 280 / 101011.9 17.6 7.4
2016-Jun-21 22:33N 46°49' W 091°52'5 9.7
2016-Jun-21 22:00N 46°48' W 092°00'510.3 320 / 151012.2 21.1 10.4
2016-Jun-21 21:33N 46°46' W 092°06'4 7.6
2016-Jun-21 21:00N 46°42' W 092°06'3 5.0 280 / 161012.5 24.6 21.2
2016-Jun-21 20:28N 46°45' W 092°07'3 5.6
2016-Jun-21 20:00N 46°42' W 092°06'3 5.0 320 / 171012.9 24.4 22.1
2016-Jun-21 19:28N 46°45' W 092°07'3 5.6
2016-Jun-21 19:00N 46°42' W 092°06'3 5.0 340 / 191012.9 23.6 23.0
2016-Jun-21 18:28N 46°45' W 092°07'3 5.6
2016-Jun-21 18:00N 46°42' W 092°06'3 5.0 310 / 221013.5 23.2 20.9
2016-Jun-21 17:28N 46°45' W 092°07'3 5.6
2016-Jun-21 17:00N 46°42' W 092°06'3 4.6 320 / 201013.5 23.1 20.5
2016-Jun-21 16:25N 46°45' W 092°07'3 6.3
2016-Jun-21 16:00N 46°42' W 092°06'3 5.6 020 / 171013.5 22.8 20.0
2016-Jun-21 15:31N 46°45' W 092°07'3 5.1
2016-Jun-21 15:00N 46°42' W 092°06'3 5.6 280 / 161013.5 22.0 19.9
2016-Jun-21 14:31N 46°45' W 092°07'3 5.1
2016-Jun-21 14:00N 46°42' W 092°06'3 5.5 300 / 101013.9 21.4 19.9
2016-Jun-21 13:31N 46°45' W 092°07'3 5.1
2016-Jun-21 13:00N 46°42' W 092°06'3 5.6 270 / 121014.6 19.6 19.9
2016-Jun-21 12:31N 46°45' W 092°07'3 5.1
2016-Jun-21 12:00N 46°42' W 092°06'3 4.2 220 / 81014.9 18.1 19.7
2016-Jun-21 11:22N 46°45' W 092°07'3 7.1
2016-Jun-21 11:00N 46°42' W 092°06'3 5.9 240 / 81014.9 17.6 19.7
2016-Jun-21 10:31N 46°45' W 092°06'3 6.1
2016-Jun-21 10:00N 46°48' W 092°06'2 4.3 230 / 91015.2 15.9 17.0
2016-Jun-21 09:33N 46°47' W 092°03'2 4.3
2016-Jun-21 09:00N 46°48' W 092°00'2 3.5 280 / 111014.9 16.0 11.1
2016-Jun-21 08:25N 46°46' W 092°01'2 4.6
2016-Jun-21 08:00N 46°48' W 092°00'2 4.2 280 / 101015.6 15.9 11.1
2016-Jun-21 07:31N 46°46' W 092°01'2 3.7
2016-Jun-21 07:00N 46°48' W 092°00'2 4.2 270 / 101015.9 16.2 10.9
2016-Jun-21 06:31N 46°46' W 092°01'2 3.7
2016-Jun-21 06:00N 46°48' W 092°00'0 0.0 260 / 91016.3 16.9 10.7
2016-Jun-21 05:00N 46°48' W 092°00'2 4.1 250 / 91016.6 17.9 10.7
2016-Jun-21 04:31N 46°46' W 092°01'2 3.7
2016-Jun-21 04:00N 46°48' W 092°00'2 4.2 250 / 91016.9 19.5 10.4
2016-Jun-21 03:31N 46°46' W 092°01'2 3.7
2016-Jun-21 03:00N 46°48' W 092°00'2 4.3 250 / 101017.3 20.6 10.5
2016-Jun-21 02:31N 46°46' W 092°01'2 3.9
2016-Jun-21 02:00N 46°48' W 092°00'2 4.5 270 / 101016.9 21.0 10.5
2016-Jun-21 01:31N 46°46' W 092°01'2 4.0
2016-Jun-21 01:00N 46°48' W 092°00'2 3.4 300 / 151016.6 22.0 10.5
2016-Jun-21 00:22N 46°46' W 092°01'2 5.6
2016-Jun-21 00:00N 46°48' W 092°00'2 3.0 290 / 181016.3 22.1 10.7
2016-Jun-20 23:19N 46°46' W 092°01'2 6.3
2016-Jun-20 23:00N 46°48' W 092°00'2 3.6 270 / 161016.6 21.7 10.9
2016-Jun-20 22:25N 46°46' W 092°01'2 4.8
2016-Jun-20 22:00N 46°48' W 092°00'2 5.3 260 / 211016.9 21.1 10.9
2016-Jun-20 21:33N 46°47' W 092°03'2 4.4
2016-Jun-20 21:00N 46°48' W 092°06'3 6.0 270 / 131017.3 23.3 17.5
2016-Jun-20 20:33N 46°45' W 092°06'3 4.6
2016-Jun-20 20:00N 46°48' W 092°06'2 5.6 260 / 181017.3 23.8 17.6
2016-Jun-20 19:33N 46°46' W 092°06'2 4.3
2016-Jun-20 19:00N 46°48' W 092°06'2 5.6 250 / 191017.6 23.0 17.2
2016-Jun-20 18:33N 46°46' W 092°06'2 4.3
2016-Jun-20 18:00N 46°48' W 092°06'2 4.4 290 / 151017.6 23.6 17.0
2016-Jun-20 17:33N 46°46' W 092°06'5 8.0
2016-Jun-20 17:00N 46°48' W 092°00'511.9 270 / 181016.3 19.8 9.8
2016-Jun-20 16:33N 46°50' W 091°53'5 9.1
2016-Jun-20 16:00N 46°54' W 091°48'4 8.5 320 / 181016.3 16.4 7.3
2016-Jun-20 15:33N 46°53' W 091°43'5 8.5
2016-Jun-20 15:00N 46°54' W 091°36'1010.2 280 / 181015.2 15.6 8.5
2016-Jun-20 14:00N 47°00' W 091°24'1212.3 230 / 101015.2 11.0 6.0
2016-Jun-20 13:00N 47°00' W 091°06'1413.7 220 / 111014.2 11.2 7.6
2016-Jun-20 12:00N 47°06' W 090°48'1413.6 240 / 181012.9 5.4 2.012.5 9.6
2016-Jun-20 11:00N 47°12' W 090°30'8 8.2 260 / 181011.5 13.9 7.4
2016-Jun-20 10:00N 47°12' W 090°18'1212.2 260 / 161010.2 13.1 6.8
2016-Jun-20 09:00N 47°12' W 090°00'1413.6 250 / 171009.1 11.7 4.6
2016-Jun-20 08:00N 47°18' W 089°42'1212.2 220 / 171008.5 10.7 4.9
2016-Jun-20 07:00N 47°18' W 089°24'1413.6 240 / 151008.1 12.9 5.6
2016-Jun-20 06:00N 47°24' W 089°06'1212.2 250 / 211006.8 13.6 7.6
2016-Jun-20 05:00N 47°24' W 088°48'1413.6 190 / 201007.5 17.2 5.2
2016-Jun-20 04:00N 47°30' W 088°30'1212.2 200 / 331008.1 5.4 2.016.6 4.8
2016-Jun-20 03:00N 47°30' W 088°12'1212.2 210 / 371008.5 5.4 1.022.9 9.0
2016-Jun-20 02:00N 47°30' W 087°54'1212.2 200 / 211008.5 25.9 10.1
2016-Jun-20 01:00N 47°30' W 087°36'1413.6 200 / 131009.1 18.3 9.5
2016-Jun-20 00:00N 47°24' W 087°18'8313.9 180 / 221010.2 14.8 5.0
2016-Jun-19 18:00N 46°54' W 085°24'1413.7 150 / 51018.3 20.6 9.8
2016-Jun-19 17:00N 46°48' W 085°06'1010.2 210 / 41019.0 22.5 11.4
2016-Jun-19 16:00N 46°42' W 084°54'1010.2 160 / 171019.6 22.8 11.9
2016-Jun-19 15:00N 46°36' W 084°42'1010.2 140 / 111020.3 22.9 13.0
2016-Jun-19 14:00N 46°30' W 084°30'4 4.1 040 / 61021.3 20.1 11.8
2016-Jun-19 13:00N 46°30' W 084°24'4 4.1 080 / 41022.4 21.2 12.8
2016-Jun-19 12:00N 46°30' W 084°18'7 7.3 150 / 81021.8 18.7 12.3
2016-Jun-19 11:00N 46°24' W 084°12'7 7.3 160 / 61021.8 18.0 13.1
2016-Jun-19 10:00N 46°18' W 084°06'811.5 140 / 41021.8 16.7 14.2
2016-Jun-19 09:18N 46°10' W 084°05'516.7
2016-Jun-19 09:00N 46°06' W 084°00'3 6.3 120 / 41022.1 17.6 16.0
2016-Jun-19 08:33N 46°03' W 083°58'5 8.3
2016-Jun-19 08:00N 46°00' W 083°54'715.8 170 / 61021.8 16.8 16.0
2016-Jun-19 07:33N 45°53' W 083°51'610.3
2016-Jun-19 07:00N 45°48' W 083°48'818.0 210 / 71021.8 17.6 13.2
2016-Jun-19 06:33N 45°42' W 083°40'1313.4
2016-Jun-19 05:33N 45°32' W 083°29'16 9.9
2016-Jun-19 04:00N 45°18' W 083°18'1010.4 180 / 51022.8 19.8 14.1
2016-Jun-19 03:00N 45°12' W 083°06'2512.7 180 / 61022.8 18.7 13.0
2016-Jun-19 01:00N 44°48' W 082°54'   190 / 121022.5 16.7 13.2
Track history (hours):
 
Tides and Currents Weather Stations Pressure Air Temp Water Temp Dewpoint Dewpoint Depression Visibility Wind Speed Wind Dir Waves Ship Positions

Paul R Tregurtha

Owner: THE INTERLAKE STEAMSHIP COMPANY, Middleburg Heights, OH. More information available from US FCC via Universal Licensing System and Coast Guard Vessel Documentation Center.

Last reported at 2016-Jun-29 01:00 UTC. Time now 2016-Jun-29 01:53 UTC.
Position N 47°24' W 089°54'.

Length 309 m; draft 7.3 m.

Type: Cargo ship. MMSI: 366904940.

Wind from 160 at 7 knots

Barometer 1020.3 mb
Air temperature 10.3 ° C
Water temperature 7.0 ° C

Date/timePositionNaut miles runAvg speedWind from/ knotsBaromVisibWave heightAir tempDewpointWater temp
2016-Jun-29 01:00N 47°24' W 089°54'1413.6 160 / 71020.3 10.3 7.0
2016-Jun-29 00:00N 47°18' W 090°12'1212.2 160 / 81020.7 12.1 9.3
2016-Jun-28 23:00N 47°18' W 090°30'1413.6 140 / 51021.7 14.0 10.8
2016-Jun-28 22:00N 47°12' W 090°48'1010.1 220 / 51022.4 14.4 13.0
2016-Jun-28 21:00N 47°06' W 091°00'1413.7 240 / 91023.0 14.0 10.0
2016-Jun-28 20:00N 47°00' W 091°18'713.5 230 / 101023.7 14.6 8.7
2016-Jun-28 19:27N 46°58' W 091°29'714.9
2016-Jun-28 19:00N 46°54' W 091°36'510.7 220 / 101024.4 14.5 10.6
2016-Jun-28 18:33N 46°53' W 091°43'611.3
2016-Jun-28 18:00N 46°48' W 091°48'716.3 180 / 81024.4 16.4 11.8
2016-Jun-28 17:33N 46°48' W 091°58'5 9.2
2016-Jun-28 17:00N 46°48' W 092°06'3 7.0 120 / 61025.1 17.2 17.7
2016-Jun-28 16:33N 46°45' W 092°06'3 5.2
2016-Jun-28 16:00N 46°42' W 092°06'3 6.1 060 / 41025.4 18.9 16.4
2016-Jun-28 15:33N 46°45' W 092°07'3 4.7
2016-Jun-28 15:00N 46°42' W 092°06'3 6.1 310 / 21025.4 20.6 18.6
2016-Jun-28 14:33N 46°45' W 092°07'3 4.7
2016-Jun-28 14:00N 46°42' W 092°06'3 6.1 360 / 51025.4 18.0 19.2
2016-Jun-28 13:33N 46°45' W 092°07'3 4.7
2016-Jun-28 13:00N 46°42' W 092°06'3 6.1 260 / 11025.4 16.5 20.3
2016-Jun-28 12:33N 46°45' W 092°07'3 4.7
2016-Jun-28 12:00N 46°42' W 092°06'3 5.9 140 / 31025.1 16.1 20.9
2016-Jun-28 11:33N 46°45' W 092°07'3 4.8
2016-Jun-28 11:00N 46°42' W 092°06'3 6.0 060 / 51024.7 14.9 21.0
2016-Jun-28 10:33N 46°45' W 092°07'3 4.7
2016-Jun-28 10:00N 46°42' W 092°06'3 6.0 320 / 61024.4 14.8 20.7
2016-Jun-28 09:33N 46°45' W 092°07'3 4.7
2016-Jun-28 09:00N 46°42' W 092°06'3 6.0 330 / 81024.4 14.1 20.3
2016-Jun-28 08:33N 46°45' W 092°07'3 4.7
2016-Jun-28 08:00N 46°42' W 092°06'3 6.0 360 / 21024.4 15.7 19.6
2016-Jun-28 07:33N 46°45' W 092°07'3 4.7
2016-Jun-28 07:00N 46°42' W 092°06'3 6.0 020 / 41024.0 15.8 20.2
2016-Jun-28 06:33N 46°45' W 092°07'3 4.7
2016-Jun-28 06:00N 46°42' W 092°06'7 7.3 040 / 41024.4 16.4 18.1
2016-Jun-28 05:00N 46°48' W 092°00'716.1 040 / 61024.4 15.1 12.0
2016-Jun-28 04:33N 46°51' W 091°51'711.9
2016-Jun-28 04:00N 46°54' W 091°42'613.7 050 / 21024.0 13.8 10.9
2016-Jun-28 03:33N 46°55' W 091°33'814.3
2016-Jun-28 03:00N 47°00' W 091°24'1212.3 330 / 11023.4 12.8 9.3
2016-Jun-28 02:00N 47°00' W 091°06'1413.7 330 / 41022.7 12.4 11.2
2016-Jun-28 01:00N 47°06' W 090°48'1413.6 290 / 31022.410.8 13.1 12.4
2016-Jun-28 00:00N 47°12' W 090°30'1212.2 350 / 71021.7 13.1 10.1
2016-Jun-27 23:00N 47°12' W 090°12'1413.6 310 / 71021.0 13.5 8.7
2016-Jun-27 22:00N 47°18' W 089°54'1212.2 280 / 71020.7 10.6 5.2
2016-Jun-27 21:00N 47°18' W 089°36'1212.2 290 / 51020.3 9.7 5.8
2016-Jun-27 20:00N 47°18' W 089°18'1413.6 290 / 61020.0 11.0 6.3
2016-Jun-27 19:00N 47°24' W 089°00'1212.2 250 / 91019.3 9.2 7.2
2016-Jun-27 18:00N 47°24' W 088°42'1413.6 250 / 61019.0 7.9 4.8
2016-Jun-27 17:00N 47°30' W 088°24'1212.2 290 / 91017.6 8.8 4.8
2016-Jun-27 16:00N 47°30' W 088°06'1212.2 330 / 101016.3 7.9 5.3
2016-Jun-27 15:00N 47°30' W 087°48'1413.6 280 / 121014.9 5.4 1.0 9.3 6.5
2016-Jun-27 14:00N 47°24' W 087°30'1212.2 320 / 121013.5 8.6 8.3
2016-Jun-27 13:00N 47°24' W 087°12'1413.6 300 / 101012.2 5.4 1.0 8.5 5.7
2016-Jun-27 12:00N 47°18' W 086°54'7312.2 210 / 81011.5 10.2 5.4
2016-Jun-27 06:00N 46°54' W 085°12'1413.7 280 / 101009.1 15.3 12.1
2016-Jun-27 05:00N 46°48' W 084°54'1312.7 210 / 151008.5 18.1 13.8
2016-Jun-27 04:00N 46°36' W 084°48'1611.2 210 / 121009.1 17.4 15.0
2016-Jun-27 02:33N 46°29' W 084°27'2 4.3
2016-Jun-27 02:00N 46°30' W 084°24'4 4.1 230 / 51009.8 21.8 15.5
2016-Jun-27 01:00N 46°30' W 084°18'6 6.0 200 / 61009.3 23.8 15.5
2016-Jun-27 00:00N 46°24' W 084°18'7 7.3 200 / 71009.6 24.0 15.5
2016-Jun-26 23:00N 46°18' W 084°12'7 7.3 230 / 121009.9 24.4 16.4
2016-Jun-26 22:00N 46°12' W 084°06'7 7.3 260 / 141011.0 21.4 17.3
2016-Jun-26 21:00N 46°06' W 084°00'1312.7 230 / 171011.0 23.2 17.1
2016-Jun-26 20:00N 45°54' W 083°54'1514.6 270 / 171011.6 17.9 15.2
2016-Jun-26 19:00N 45°42' W 083°42'2512.3 260 / 91012.0 17.5 15.7
2016-Jun-26 17:00N 45°24' W 083°18'1312.7 350 / 71012.0 18.5 15.9
2016-Jun-26 16:00N 45°12' W 083°12'1514.7 220 / 61012.7 18.2 15.2
2016-Jun-26 15:00N 45°00' W 083°00'1312.7 190 / 151013.3 5.4 1.017.6 14.9
2016-Jun-26 14:00N 44°48' W 082°54'1312.7 200 / 161014.7 17.3 14.9
2016-Jun-26 13:00N 44°36' W 082°48'4013.3 180 / 141015.0 16.9 15.0
2016-Jun-26 10:00N 44°00' W 082°24'1212.0 170 / 141016.4 17.9 16.4
2016-Jun-26 09:00N 43°48' W 082°24'1818.0 180 / 141016.7 18.7 18.0
2016-Jun-26 08:00N 43°30' W 082°24'1212.0 180 / 131018.1 18.7 18.1
2016-Jun-26 07:00N 43°18' W 082°24'1212.0 180 / 101018.1 18.6 18.2
2016-Jun-26 06:00N 43°06' W 082°24'6 6.0 200 / 81019.1 19.7 18.9
2016-Jun-26 05:00N 43°00' W 082°24'1312.8 200 / 41019.4 20.3 18.8
2016-Jun-26 04:00N 42°48' W 082°30'6 6.0 180 / 61019.4 20.5 19.0
2016-Jun-26 03:00N 42°42' W 082°30'1312.8 200 / 41019.8 21.3 18.9
2016-Jun-26 02:00N 42°30' W 082°36'2110.7 170 / 91019.2 22.0 19.1
2016-Jun-26 00:00N 42°18' W 083°00'7 7.5 220 / 81019.2 26.5 22.4
2016-Jun-25 23:00N 42°12' W 083°06'6 6.0 180 / 101019.2 27.2 21.8
2016-Jun-25 22:00N 42°06' W 083°06'1212.0 160 / 91019.8 25.3 22.3
2016-Jun-25 21:00N 41°54' W 083°06'9 8.9 140 / 71020.5 23.9 23.8
2016-Jun-25 20:00N 41°54' W 083°18'0 0.0 120 / 61021.2 24.5 24.2
2016-Jun-25 19:00N 41°54' W 083°18'0 0.0 210 / 21021.2 25.8 26.0
2016-Jun-25 18:00N 41°54' W 083°18'0 0.0 220 / 11021.5 26.6 25.8
2016-Jun-25 17:00N 41°54' W 083°18'0 0.0 180 / 11021.5 25.4 25.8
2016-Jun-25 16:00N 41°54' W 083°18'0 0.0 240 / 41022.2 27.8 25.8
2016-Jun-25 15:00N 41°54' W 083°18'0 0.0 170 / 41022.2 25.4 25.8
2016-Jun-25 14:00N 41°54' W 083°18'0 0.0 170 / 41022.2 24.6 25.5
2016-Jun-25 13:00N 41°54' W 083°18'0 0.0 090 / 11021.8 23.4 25.6
2016-Jun-25 12:00N 41°54' W 083°18'0 0.0 060 / 21021.5 21.2 25.5
2016-Jun-25 11:00N 41°54' W 083°18'0 0.0 110 / 11020.8 20.6 25.7
2016-Jun-25 10:00N 41°54' W 083°18'0 0.0 020 / 11020.1 19.2 25.9
2016-Jun-25 09:00N 41°54' W 083°18'0 0.0 360 / 61019.8 18.8 25.7
2016-Jun-25 08:00N 41°54' W 083°18'4 4.5 300 / 41020.1 19.4 24.0
2016-Jun-25 07:00N 41°54' W 083°12'13 6.4 030 / 31020.1 21.5 22.8
2016-Jun-25 05:00N 42°06' W 083°06'1212.0 340 / 21020.6 19.1 21.4
2016-Jun-25 04:00N 42°18' W 083°06'1110.7 090 / 11020.3 20.6 21.8
2016-Jun-25 03:00N 42°24' W 082°54'1110.7 220 / 21019.6 22.2 21.3
2016-Jun-25 02:00N 42°30' W 082°42'1110.7 090 / 61019.2 22.2 18.6
2016-Jun-25 01:00N 42°36' W 082°30'1212.0 040 / 41019.1 22.4 18.4
2016-Jun-25 00:00N 42°48' W 082°30'0 0.0 010 / 61019.1 23.8 19.5
2016-Jun-24 23:00N 42°48' W 082°30'0 0.0 060 / 31019.1 24.9 20.4
2016-Jun-24 22:00N 42°48' W 082°30'0 0.0 060 / 71019.1 24.9 20.6
2016-Jun-24 21:00N 42°48' W 082°30'0 0.0 060 / 21019.1 26.0 20.3
2016-Jun-24 20:00N 42°48' W 082°30'0 0.0 260 / 21019.4 25.7 20.1
2016-Jun-24 19:00N 42°48' W 082°30'0 0.0 070 / 21019.8 26.3 20.1
2016-Jun-24 18:00N 42°48' W 082°30'0 0.0 210 / 21019.8 24.3 20.0
2016-Jun-24 17:00N 42°48' W 082°30'0 0.0 300 / 11019.8 24.7 20.4
2016-Jun-24 16:00N 42°48' W 082°30'0 0.0 070 / 41019.8 23.0 20.4
2016-Jun-24 15:00N 42°48' W 082°30'0 0.0 100 / 51019.4 22.2 19.7
2016-Jun-24 14:00N 42°48' W 082°30'0 0.0 080 / 41020.1 20.6 19.5
2016-Jun-24 13:00N 42°48' W 082°30'6 6.0 020 / 31019.8 18.8 18.0
2016-Jun-24 12:00N 42°54' W 082°30'1312.8 040 / 71019.1 18.1 17.9
2016-Jun-24 11:00N 43°06' W 082°24'1212.0 020 / 91018.4 16.9 17.5
2016-Jun-24 10:00N 43°18' W 082°24'1212.0 360 / 91018.4 15.6 16.6
2016-Jun-24 09:00N 43°30' W 082°24'1312.8 330 / 81017.4 14.9 16.5
2016-Jun-24 08:00N 43°42' W 082°30'2412.2 350 / 31017.4 14.8 15.5
2016-Jun-24 06:00N 44°06' W 082°36'1312.7 050 / 61016.7 15.2 14.4
2016-Jun-24 05:00N 44°18' W 082°42'3310.9 040 / 41016.7 16.7 13.9
2016-Jun-24 02:00N 44°48' W 083°00'1212.0 220 / 51015.7 15.8 14.0
2016-Jun-24 01:00N 45°00' W 083°00'1514.7 240 / 41015.410.8 16.7 14.2
2016-Jun-24 00:00N 45°12' W 083°12'3712.2 230 / 51015.0 16.7 13.4
2016-Jun-23 21:00N 45°42' W 083°42'20 9.9 240 / 81015.0 16.1 13.8
2016-Jun-23 19:00N 46°00' W 083°54'7 7.3 190 / 101014.7 20.7 16.2
2016-Jun-23 18:00N 46°06' W 084°00'1010.3 330 / 71014.7 21.6 15.6
2016-Jun-23 17:00N 46°12' W 084°12'6 6.0 330 / 61015.4 21.0 14.7
2016-Jun-23 16:00N 46°18' W 084°12'7 7.3 020 / 51015.4 19.5 14.2
2016-Jun-23 15:00N 46°24' W 084°18'6 6.0 300 / 41015.0 17.7 14.2
2016-Jun-23 14:00N 46°30' W 084°18'4 4.1 180 / 11015.4 18.5 13.8
2016-Jun-23 13:00N 46°30' W 084°24'0 0.0 300 / 21015.2 15.6 13.8
2016-Jun-23 12:00N 46°30' W 084°24'0 0.0 250 / 21014.6 13.7 14.0
2016-Jun-23 11:00N 46°30' W 084°24'0 0.0 220 / 21014.6 13.7 13.9
2016-Jun-23 10:00N 46°30' W 084°24'0 0.0 310 / 21013.9 10.7 14.0
2016-Jun-23 09:00N 46°30' W 084°24'4 4.1 050 / 51013.5 11.3 14.1
2016-Jun-23 08:00N 46°30' W 084°30'4 4.1 200 / 31013.9 10.3 13.6
2016-Jun-23 07:00N 46°30' W 084°36'1010.2 1013.2 12.5 13.4
2016-Jun-23 06:00N 46°36' W 084°48'1312.7 340 / 31013.9 11.7 12.3
2016-Jun-23 05:00N 46°48' W 084°54'1010.2 350 / 61013.5 11.0 11.6
2016-Jun-23 04:00N 46°54' W 085°06'8 8.2 340 / 41013.5 9.8 10.2
2016-Jun-23 03:00N 46°54' W 085°18'1010.2 250 / 21013.9 10.0 7.8
2016-Jun-23 02:00N 47°00' W 085°30'70 9.9 190 / 21013.510.8 10.0 7.2
2016-Jun-22 19:00N 47°24' W 087°06'1010.1 110 / 61014.9 8.9 5.1
2016-Jun-22 18:00N 47°30' W 087°18'1010.1 110 / 61015.6 9.2 5.2
2016-Jun-22 17:00N 47°36' W 087°30'1212.1 110 / 51015.9 7.3 7.4
2016-Jun-22 16:00N 47°36' W 087°48'8 8.1 100 / 61014.9 9.0 5.5
2016-Jun-22 15:00N 47°36' W 088°00'1212.1 020 / 41014.9 10.3 4.9
2016-Jun-22 14:00N 47°36' W 088°18'8 8.1 340 / 31015.6 7.6 4.4
2016-Jun-22 13:00N 47°36' W 088°30'1413.5 320 / 11015.910.8 7.9 4.4
2016-Jun-22 12:00N 47°30' W 088°48'8 8.1 140 / 41014.9 9.0 4.6
2016-Jun-22 11:00N 47°30' W 089°00'8 8.1 040 / 61013.9 8.4 6.4
2016-Jun-22 10:00N 47°30' W 089°12'1413.6 130 / 101012.9 9.3 5.3
2016-Jun-22 09:00N 47°24' W 089°30'8 8.1 110 / 111012.5 8.9 5.0
2016-Jun-22 08:00N 47°24' W 089°42'8 8.1 110 / 101013.2 7.4 4.7
2016-Jun-22 07:00N 47°24' W 089°54'1413.6 080 / 121012.9 8.1 5.5
2016-Jun-22 06:00N 47°18' W 090°12'8 8.1 050 / 101013.2 12.0 7.1
2016-Jun-22 05:00N 47°18' W 090°24'1212.2 350 / 101013.2 16.9 8.2
2016-Jun-22 04:00N 47°18' W 090°42'1010.1 340 / 111012.5 18.5 9.2
2016-Jun-22 03:00N 47°12' W 090°54'1010.1 340 / 101012.510.8 0.518.3 11.7
2016-Jun-22 02:00N 47°06' W 091°06'1010.1 320 / 131011.9 20.1 8.5
2016-Jun-22 01:00N 47°00' W 091°18'8 8.2 240 / 31011.5 15.8 6.1
2016-Jun-22 00:00N 47°00' W 091°30'817.6 290 / 71011.9 17.4 7.1
2016-Jun-21 23:34N 46°55' W 091°38'3 4.9
2016-Jun-21 23:00N 46°54' W 091°42'819.3 280 / 101011.9 17.6 7.4
2016-Jun-21 22:33N 46°49' W 091°52'5 9.7
2016-Jun-21 22:00N 46°48' W 092°00'510.3 320 / 151012.2 21.1 10.4
2016-Jun-21 21:33N 46°46' W 092°06'4 7.6
2016-Jun-21 21:00N 46°42' W 092°06'3 5.0 280 / 161012.5 24.6 21.2
2016-Jun-21 20:28N 46°45' W 092°07'3 5.6
2016-Jun-21 20:00N 46°42' W 092°06'3 5.0 320 / 171012.9 24.4 22.1
2016-Jun-21 19:28N 46°45' W 092°07'3 5.6
2016-Jun-21 19:00N 46°42' W 092°06'3 5.0 340 / 191012.9 23.6 23.0
2016-Jun-21 18:28N 46°45' W 092°07'3 5.6
2016-Jun-21 18:00N 46°42' W 092°06'3 5.0 310 / 221013.5 23.2 20.9
2016-Jun-21 17:28N 46°45' W 092°07'3 5.6
2016-Jun-21 17:00N 46°42' W 092°06'3 4.6 320 / 201013.5 23.1 20.5
2016-Jun-21 16:25N 46°45' W 092°07'3 6.3
2016-Jun-21 16:00N 46°42' W 092°06'3 5.6 020 / 171013.5 22.8 20.0
2016-Jun-21 15:31N 46°45' W 092°07'3 5.1
2016-Jun-21 15:00N 46°42' W 092°06'3 5.6 280 / 161013.5 22.0 19.9
2016-Jun-21 14:31N 46°45' W 092°07'3 5.1
2016-Jun-21 14:00N 46°42' W 092°06'3 5.5 300 / 101013.9 21.4 19.9
2016-Jun-21 13:31N 46°45' W 092°07'3 5.1
2016-Jun-21 13:00N 46°42' W 092°06'3 5.6 270 / 121014.6 19.6 19.9
2016-Jun-21 12:31N 46°45' W 092°07'3 5.1
2016-Jun-21 12:00N 46°42' W 092°06'3 4.2 220 / 81014.9 18.1 19.7
2016-Jun-21 11:22N 46°45' W 092°07'3 7.1
2016-Jun-21 11:00N 46°42' W 092°06'3 5.9 240 / 81014.9 17.6 19.7
2016-Jun-21 10:31N 46°45' W 092°06'3 6.1
2016-Jun-21 10:00N 46°48' W 092°06'2 4.3 230 / 91015.2 15.9 17.0
2016-Jun-21 09:33N 46°47' W 092°03'2 4.3
2016-Jun-21 09:00N 46°48' W 092°00'2 3.5 280 / 111014.9 16.0 11.1
2016-Jun-21 08:25N 46°46' W 092°01'2 4.6
2016-Jun-21 08:00N 46°48' W 092°00'2 4.2 280 / 101015.6 15.9 11.1
2016-Jun-21 07:31N 46°46' W 092°01'2 3.7
2016-Jun-21 07:00N 46°48' W 092°00'2 4.2 270 / 101015.9 16.2 10.9
2016-Jun-21 06:31N 46°46' W 092°01'2 3.7
2016-Jun-21 06:00N 46°48' W 092°00'0 0.0 260 / 91016.3 16.9 10.7
2016-Jun-21 05:00N 46°48' W 092°00'2 4.1 250 / 91016.6 17.9 10.7
2016-Jun-21 04:31N 46°46' W 092°01'2 3.7
2016-Jun-21 04:00N 46°48' W 092°00'2 4.2 250 / 91016.9 19.5 10.4
2016-Jun-21 03:31N 46°46' W 092°01'2 3.7
2016-Jun-21 03:00N 46°48' W 092°00'2 4.3 250 / 101017.3 20.6 10.5
2016-Jun-21 02:31N 46°46' W 092°01'2 3.9
2016-Jun-21 02:00N 46°48' W 092°00'2 4.5 270 / 101016.9 21.0 10.5
2016-Jun-21 01:31N 46°46' W 092°01'2 4.0
2016-Jun-21 01:00N 46°48' W 092°00'2 3.4 300 / 151016.6 22.0 10.5
2016-Jun-21 00:22N 46°46' W 092°01'2 5.6
2016-Jun-21 00:00N 46°48' W 092°00'2 3.0 290 / 181016.3 22.1 10.7
2016-Jun-20 23:19N 46°46' W 092°01'2 6.3
2016-Jun-20 23:00N 46°48' W 092°00'2 3.6 270 / 161016.6 21.7 10.9
2016-Jun-20 22:25N 46°46' W 092°01'2 4.8
2016-Jun-20 22:00N 46°48' W 092°00'2 5.3 260 / 211016.9 21.1 10.9
2016-Jun-20 21:33N 46°47' W 092°03'2 4.4
2016-Jun-20 21:00N 46°48' W 092°06'3 6.0 270 / 131017.3 23.3 17.5
2016-Jun-20 20:33N 46°45' W 092°06'3 4.6
2016-Jun-20 20:00N 46°48' W 092°06'2 5.6 260 / 181017.3 23.8 17.6
2016-Jun-20 19:33N 46°46' W 092°06'2 4.3
2016-Jun-20 19:00N 46°48' W 092°06'2 5.6 250 / 191017.6 23.0 17.2
2016-Jun-20 18:33N 46°46' W 092°06'2 4.3
2016-Jun-20 18:00N 46°48' W 092°06'2 4.4 290 / 151017.6 23.6 17.0
2016-Jun-20 17:33N 46°46' W 092°06'5 8.0
2016-Jun-20 17:00N 46°48' W 092°00'511.9 270 / 181016.3 19.8 9.8
2016-Jun-20 16:33N 46°50' W 091°53'5 9.1
2016-Jun-20 16:00N 46°54' W 091°48'4 8.5 320 / 181016.3 16.4 7.3
2016-Jun-20 15:33N 46°53' W 091°43'5 8.5
2016-Jun-20 15:00N 46°54' W 091°36'1010.2 280 / 181015.2 15.6 8.5
2016-Jun-20 14:00N 47°00' W 091°24'1212.3 230 / 101015.2 11.0 6.0
2016-Jun-20 13:00N 47°00' W 091°06'1413.7 220 / 111014.2 11.2 7.6
2016-Jun-20 12:00N 47°06' W 090°48'1413.6 240 / 181012.9 5.4 2.012.5 9.6
2016-Jun-20 11:00N 47°12' W 090°30'8 8.2 260 / 181011.5 13.9 7.4
2016-Jun-20 10:00N 47°12' W 090°18'1212.2 260 / 161010.2 13.1 6.8
2016-Jun-20 09:00N 47°12' W 090°00'1413.6 250 / 171009.1 11.7 4.6
2016-Jun-20 08:00N 47°18' W 089°42'1212.2 220 / 171008.5 10.7 4.9
2016-Jun-20 07:00N 47°18' W 089°24'1413.6 240 / 151008.1 12.9 5.6
2016-Jun-20 06:00N 47°24' W 089°06'1212.2 250 / 211006.8 13.6 7.6
2016-Jun-20 05:00N 47°24' W 088°48'1413.6 190 / 201007.5 17.2 5.2
2016-Jun-20 04:00N 47°30' W 088°30'1212.2 200 / 331008.1 5.4 2.016.6 4.8
2016-Jun-20 03:00N 47°30' W 088°12'1212.2 210 / 371008.5 5.4 1.022.9 9.0
2016-Jun-20 02:00N 47°30' W 087°54'1212.2 200 / 211008.5 25.9 10.1
2016-Jun-20 01:00N 47°30' W 087°36'1413.6 200 / 131009.1 18.3 9.5
2016-Jun-20 00:00N 47°24' W 087°18'8313.9 180 / 221010.2 14.8 5.0
2016-Jun-19 18:00N 46°54' W 085°24'1413.7 150 / 51018.3 20.6 9.8
2016-Jun-19 17:00N 46°48' W 085°06'1010.2 210 / 41019.0 22.5 11.4
2016-Jun-19 16:00N 46°42' W 084°54'1010.2 160 / 171019.6 22.8 11.9
2016-Jun-19 15:00N 46°36' W 084°42'1010.2 140 / 111020.3 22.9 13.0
2016-Jun-19 14:00N 46°30' W 084°30'4 4.1 040 / 61021.3 20.1 11.8
2016-Jun-19 13:00N 46°30' W 084°24'4 4.1 080 / 41022.4 21.2 12.8
2016-Jun-19 12:00N 46°30' W 084°18'7 7.3 150 / 81021.8 18.7 12.3
2016-Jun-19 11:00N 46°24' W 084°12'7 7.3 160 / 61021.8 18.0 13.1
2016-Jun-19 10:00N 46°18' W 084°06'811.5 140 / 41021.8 16.7 14.2
2016-Jun-19 09:18N 46°10' W 084°05'516.7
2016-Jun-19 09:00N 46°06' W 084°00'3 6.3 120 / 41022.1 17.6 16.0
2016-Jun-19 08:33N 46°03' W 083°58'5 8.3
2016-Jun-19 08:00N 46°00' W 083°54'715.8 170 / 61021.8 16.8 16.0
2016-Jun-19 07:33N 45°53' W 083°51'610.3
2016-Jun-19 07:00N 45°48' W 083°48'818.0 210 / 71021.8 17.6 13.2
2016-Jun-19 06:33N 45°42' W 083°40'1313.4
2016-Jun-19 05:33N 45°32' W 083°29'16 9.9
2016-Jun-19 04:00N 45°18' W 083°18'1010.4 180 / 51022.8 19.8 14.1
2016-Jun-19 03:00N 45°12' W 083°06'2512.7 180 / 61022.8 18.7 13.0
2016-Jun-19 01:00N 44°48' W 082°54'   190 / 121022.5 16.7 13.2

Dump ship's entire track history